Time;durP1;ratioP1;P1;durP2;ratioP2;P2;SDS_P1;SDS_P2;PMS_P1;PMS_P2;Temp;Humidity;BMP_temperature;BMP_pressure;BME280_temperature;BME280_humidity;BME280_pressure;Samples;Min_cycle;Max_cycle;Signal;HPM_P1;HPM_P2
2024/01/19 00:01:14;;;;;;;10.63;2.27;;;;;;;;;;5033319;28;20729;-74
2024/01/19 00:03:40;;;;;;;8.70;3.00;;;;;;;;;;5027818;28;20635;-73
2024/01/19 00:06:05;;;;;;;5.40;1.60;;;;;;;;;;5028455;28;20650;-74
2024/01/19 00:08:31;;;;;;;5.17;1.77;;;;;;;;;;5034926;28;20596;-73
2024/01/19 00:10:56;;;;;;;9.73;1.77;;;;;;;;;;5035957;28;20185;-75
2024/01/19 00:13:21;;;;;;;7.27;2.17;;;;;;;;;;5045790;28;20269;-74
2024/01/19 00:15:47;;;;;;;6.47;1.73;;;;;;;;;;5032891;28;20590;-75
2024/01/19 00:18:12;;;;;;;6.87;1.70;;;;;;;;;;5044464;28;20260;-74
2024/01/19 00:20:37;;;;;;;10.13;1.87;;;;;;;;;;5032790;28;20203;-74
2024/01/19 00:23:03;;;;;;;8.57;1.70;;;;;;;;;;5045799;28;20514;-74
2024/01/19 00:25:29;;;;;;;4.70;1.50;;;;;;;;;;5031171;28;20194;-74
2024/01/19 00:27:54;;;;;;;4.93;1.60;;;;;;;;;;5011112;28;20672;-74
2024/01/19 00:30:20;;;;;;;6.33;1.63;;;;;;;;;;5033304;28;20194;-74
2024/01/19 00:32:45;;;;;;;8.07;1.70;;;;;;;;;;5034578;28;20190;-74
2024/01/19 00:35:11;;;;;;;10.10;1.70;;;;;;;;;;5031541;28;20209;-74
2024/01/19 00:37:36;;;;;;;10.97;1.60;;;;;;;;;;5028976;28;20212;-74
2024/01/19 00:40:03;;;;;;;10.40;2.20;;;;;;;;;;5031287;28;20185;-74
2024/01/19 00:42:28;;;;;;;4.33;1.70;;;;;;;;;;5028893;28;20683;-75
2024/01/19 00:44:54;;;;;;;6.00;1.80;;;;;;;;;;5027681;28;20229;-74
2024/01/19 00:47:19;;;;;;;6.13;1.93;;;;;;;;;;5029978;28;20269;-74
2024/01/19 00:49:45;;;;;;;7.03;1.80;;;;;;;;;;5029777;28;20216;-74
2024/01/19 00:52:10;;;;;;;8.97;2.73;;;;;;;;;;5026368;28;20175;-74
2024/01/19 00:54:36;;;;;;;10.53;1.90;;;;;;;;;;5033631;28;20727;-74
2024/01/19 00:57:02;;;;;;;8.33;1.73;;;;;;;;;;5036309;28;20202;-74
2024/01/19 00:59:28;;;;;;;9.60;2.17;;;;;;;;;;5035666;28;20656;-74
2024/01/19 01:01:53;;;;;;;8.80;2.10;;;;;;;;;;5040944;28;20214;-74
2024/01/19 01:04:19;;;;;;;4.37;1.40;;;;;;;;;;5035850;28;20197;-75
2024/01/19 01:06:44;;;;;;;6.67;2.10;;;;;;;;;;5030024;28;20190;-75
2024/01/19 01:09:10;;;;;;;6.63;2.00;;;;;;;;;;5030784;28;20193;-75
2024/01/19 01:11:35;;;;;;;11.57;1.70;;;;;;;;;;5030145;28;20182;-75
2024/01/19 01:14:01;;;;;;;7.90;1.83;;;;;;;;;;5037994;28;20186;-75
2024/01/19 01:16:26;;;;;;;7.73;1.93;;;;;;;;;;5031316;28;20226;-75
2024/01/19 01:18:51;;;;;;;8.27;2.20;;;;;;;;;;5035003;28;20218;-75
2024/01/19 01:21:17;;;;;;;9.77;2.30;;;;;;;;;;5030603;28;21054;-74
2024/01/19 01:23:42;;;;;;;5.87;1.80;;;;;;;;;;5014499;28;20564;-74
2024/01/19 01:26:08;;;;;;;4.83;2.03;;;;;;;;;;5041599;28;20279;-74
2024/01/19 01:28:33;;;;;;;7.63;2.17;;;;;;;;;;5039316;28;20224;-75
2024/01/19 01:30:59;;;;;;;7.37;2.00;;;;;;;;;;5035065;28;20181;-75
2024/01/19 01:33:24;;;;;;;7.23;2.57;;;;;;;;;;5028994;28;20194;-75
2024/01/19 01:35:49;;;;;;;6.63;2.10;;;;;;;;;;5036381;28;20517;-75
2024/01/19 01:38:15;;;;;;;9.77;2.43;;;;;;;;;;5032239;28;20213;-74
2024/01/19 01:40:41;;;;;;;8.07;2.67;;;;;;;;;;5016365;28;20847;-74
2024/01/19 01:43:06;;;;;;;14.77;2.40;;;;;;;;;;5040097;28;20214;-74
2024/01/19 01:45:32;;;;;;;6.17;2.03;;;;;;;;;;5034100;28;20580;-74
2024/01/19 01:47:59;;;;;;;7.70;2.37;;;;;;;;;;5040655;28;20198;-74
2024/01/19 01:50:25;;;;;;;5.47;2.63;;;;;;;;;;5043872;28;20204;-74
2024/01/19 01:52:54;;;;;;;7.90;2.70;;;;;;;;;;5041729;28;20592;-74
2024/01/19 01:55:19;;;;;;;8.77;3.00;;;;;;;;;;5040801;28;20198;-74
2024/01/19 01:57:46;;;;;;;11.07;2.90;;;;;;;;;;5043490;28;20209;-74
2024/01/19 02:00:14;;;;;;;8.87;3.30;;;;;;;;;;5033639;28;20190;-75
2024/01/19 02:02:40;;;;;;;7.73;2.47;;;;;;;;;;5031681;28;20294;-74
2024/01/19 02:05:05;;;;;;;5.17;2.70;;;;;;;;;;5047396;28;20632;-74
2024/01/19 02:07:32;;;;;;;6.63;2.67;;;;;;;;;;5031508;28;20306;-73
2024/01/19 02:09:57;;;;;;;11.00;3.03;;;;;;;;;;5028394;28;20213;-74
2024/01/19 02:12:23;;;;;;;13.40;2.93;;;;;;;;;;5031941;28;20660;-74
2024/01/19 02:14:49;;;;;;;7.27;2.67;;;;;;;;;;5034125;28;20221;-75
2024/01/19 02:17:14;;;;;;;11.07;3.03;;;;;;;;;;5048810;28;20564;-75
2024/01/19 02:19:40;;;;;;;6.77;2.80;;;;;;;;;;5050614;28;20203;-74
2024/01/19 02:22:05;;;;;;;8.20;3.00;;;;;;;;;;5041077;28;20316;-74
2024/01/19 02:24:33;;;;;;;6.83;2.67;;;;;;;;;;5031221;28;20214;-74
2024/01/19 02:27:00;;;;;;;10.63;2.87;;;;;;;;;;5049623;28;20182;-75
2024/01/19 02:29:25;;;;;;;9.23;3.10;;;;;;;;;;5048664;28;20189;-74
2024/01/19 02:31:51;;;;;;;6.03;2.83;;;;;;;;;;5041244;28;20241;-74
2024/01/19 02:34:17;;;;;;;8.17;2.77;;;;;;;;;;5043919;28;20194;-74
2024/01/19 02:36:42;;;;;;;7.47;3.13;;;;;;;;;;5035399;28;20341;-74
2024/01/19 02:39:08;;;;;;;9.77;3.10;;;;;;;;;;5031114;28;20189;-74
2024/01/19 02:41:33;;;;;;;9.47;2.70;;;;;;;;;;5044056;28;20213;-74
2024/01/19 02:43:59;;;;;;;9.70;2.90;;;;;;;;;;5041178;28;20263;-74
2024/01/19 02:46:24;;;;;;;9.90;3.17;;;;;;;;;;5036708;28;20201;-74
2024/01/19 02:48:50;;;;;;;7.13;3.10;;;;;;;;;;5017870;28;20562;-74
2024/01/19 02:51:15;;;;;;;5.57;3.00;;;;;;;;;;5031851;28;20193;-74
2024/01/19 02:53:41;;;;;;;6.17;2.57;;;;;;;;;;5040615;28;20202;-74
2024/01/19 02:56:06;;;;;;;10.83;3.20;;;;;;;;;;5042689;28;20604;-75
2024/01/19 02:58:32;;;;;;;7.27;3.13;;;;;;;;;;5030981;28;20190;-74
2024/01/19 03:00:59;;;;;;;10.97;3.30;;;;;;;;;;5038487;28;20273;-75
2024/01/19 03:03:24;;;;;;;11.77;3.17;;;;;;;;;;5033283;28;20193;-74
2024/01/19 03:05:50;;;;;;;8.20;3.40;;;;;;;;;;5030864;28;20190;-74
2024/01/19 03:08:15;;;;;;;12.67;3.47;;;;;;;;;;5037780;28;20324;-74
2024/01/19 03:10:41;;;;;;;7.17;3.37;;;;;;;;;;5033784;28;20239;-74
2024/01/19 03:13:06;;;;;;;6.60;3.10;;;;;;;;;;5047920;28;20287;-74
2024/01/19 03:15:32;;;;;;;8.50;3.63;;;;;;;;;;5042920;28;20359;-74
2024/01/19 03:17:57;;;;;;;10.03;3.20;;;;;;;;;;5022588;28;20181;-74
2024/01/19 03:20:23;;;;;;;10.03;3.40;;;;;;;;;;5046568;28;20346;-74
2024/01/19 03:22:48;;;;;;;6.47;3.70;;;;;;;;;;5044229;28;20220;-75
2024/01/19 03:25:13;;;;;;;8.43;3.43;;;;;;;;;;5047920;28;20187;-75
2024/01/19 03:27:39;;;;;;;8.33;3.63;;;;;;;;;;5033097;28;20213;-74
2024/01/19 03:30:05;;;;;;;9.03;3.80;;;;;;;;;;5022664;28;20192;-75
2024/01/19 03:32:31;;;;;;;7.10;3.57;;;;;;;;;;5036449;28;20232;-74
2024/01/19 03:34:56;;;;;;;5.83;3.43;;;;;;;;;;5036279;28;20621;-74
2024/01/19 03:37:21;;;;;;;6.30;3.87;;;;;;;;;;5031480;28;20190;-74
2024/01/19 03:39:47;;;;;;;9.20;4.50;;;;;;;;;;5045668;28;20203;-74
2024/01/19 03:42:12;;;;;;;11.93;3.90;;;;;;;;;;5035170;28;20216;-74
2024/01/19 03:44:40;;;;;;;7.80;3.67;;;;;;;;;;5032124;28;20201;-74
2024/01/19 03:47:06;;;;;;;9.90;4.10;;;;;;;;;;5033218;28;20246;-74
2024/01/19 03:49:31;;;;;;;9.53;4.60;;;;;;;;;;5013233;28;20226;-74
2024/01/19 03:52:07;;;;;;;7.63;4.87;;;;;;;;;;5044167;28;20196;-74
2024/01/19 03:54:34;;;;;;;5.90;3.67;;;;;;;;;;5047107;28;20398;-74
2024/01/19 03:57:01;;;;;;;5.47;4.37;;;;;;;;;;5041678;28;20716;-74
2024/01/19 03:59:27;;;;;;;5.37;3.80;;;;;;;;;;5031633;28;20186;-74
2024/01/19 04:01:54;;;;;;;11.87;3.97;;;;;;;;;;5028820;28;20266;-74
2024/01/19 04:04:19;;;;;;;11.03;4.63;;;;;;;;;;5033024;28;20232;-74
2024/01/19 04:06:45;;;;;;;7.00;3.80;;;;;;;;;;5027612;28;20557;-74
2024/01/19 04:09:10;;;;;;;8.43;3.70;;;;;;;;;;5029589;28;20186;-74
2024/01/19 04:11:36;;;;;;;10.93;4.73;;;;;;;;;;5035268;28;20182;-74
2024/01/19 04:14:02;;;;;;;11.43;5.23;;;;;;;;;;5031425;28;20201;-74
2024/01/19 04:16:28;;;;;;;12.27;5.47;;;;;;;;;;5036755;28;20316;-74
2024/01/19 04:18:53;;;;;;;14.27;6.00;;;;;;;;;;5028188;28;20367;-75
2024/01/19 04:21:19;;;;;;;11.97;5.83;;;;;;;;;;5037138;28;20208;-74
2024/01/19 04:23:47;;;;;;;11.60;5.80;;;;;;;;;;5030955;28;20236;-74
2024/01/19 04:26:12;;;;;;;11.07;6.27;;;;;;;;;;5030320;28;20301;-74
2024/01/19 04:28:39;;;;;;;10.70;6.30;;;;;;;;;;5035785;28;20216;-74
2024/01/19 04:31:06;;;;;;;10.47;5.83;;;;;;;;;;5030291;28;20272;-75
2024/01/19 04:33:32;;;;;;;14.27;6.70;;;;;;;;;;5040022;28;20326;-75
2024/01/19 04:35:57;;;;;;;11.23;6.27;;;;;;;;;;5037286;28;20221;-75
2024/01/19 04:38:22;;;;;;;9.33;6.00;;;;;;;;;;5044510;28;20312;-75
2024/01/19 04:40:48;;;;;;;10.47;6.10;;;;;;;;;;5032107;28;20491;-75
2024/01/19 04:43:13;;;;;;;15.53;6.37;;;;;;;;;;5032407;28;20587;-75
2024/01/19 04:45:39;;;;;;;10.40;5.70;;;;;;;;;;5028533;28;20194;-75
2024/01/19 04:48:04;;;;;;;12.47;6.20;;;;;;;;;;5032778;28;20713;-75
2024/01/19 04:50:30;;;;;;;11.43;6.17;;;;;;;;;;5046368;28;20684;-75
2024/01/19 04:52:55;;;;;;;10.67;5.80;;;;;;;;;;5048287;28;20189;-75
2024/01/19 04:55:21;;;;;;;14.63;5.67;;;;;;;;;;5041887;28;20261;-75
2024/01/19 04:57:46;;;;;;;7.30;5.70;;;;;;;;;;5039516;28;20673;-75
2024/01/19 05:00:13;;;;;;;8.77;5.23;;;;;;;;;;5036668;28;20670;-76
2024/01/19 05:02:39;;;;;;;11.80;5.77;;;;;;;;;;5045109;28;20204;-75
2024/01/19 05:05:04;;;;;;;10.37;5.03;;;;;;;;;;5035795;28;20190;-75
2024/01/19 05:07:30;;;;;;;10.13;5.07;;;;;;;;;;5031912;28;20194;-75
2024/01/19 05:09:56;;;;;;;9.57;4.67;;;;;;;;;;5033803;28;20609;-76
2024/01/19 05:12:22;;;;;;;9.53;4.23;;;;;;;;;;5029951;28;20190;-76
2024/01/19 05:14:47;;;;;;;14.70;4.67;;;;;;;;;;5038529;28;20761;-75
2024/01/19 05:17:13;;;;;;;10.27;5.00;;;;;;;;;;5033564;28;20236;-75
2024/01/19 05:19:38;;;;;;;8.23;4.37;;;;;;;;;;5039501;28;20213;-75
2024/01/19 05:22:04;;;;;;;10.40;4.23;;;;;;;;;;5029453;28;20264;-75
2024/01/19 05:24:29;;;;;;;10.63;4.20;;;;;;;;;;5034861;28;20194;-75
2024/01/19 05:26:55;;;;;;;17.20;5.03;;;;;;;;;;5043539;28;20198;-76
2024/01/19 05:29:22;;;;;;;9.40;4.10;;;;;;;;;;5040111;28;20186;-75
2024/01/19 05:31:47;;;;;;;10.83;4.77;;;;;;;;;;5041400;28;20490;-76
2024/01/19 05:34:13;;;;;;;8.10;4.30;;;;;;;;;;5037529;28;20805;-76
2024/01/19 05:36:40;;;;;;;13.37;4.13;;;;;;;;;;5047815;28;20656;-76
2024/01/19 05:39:07;;;;;;;6.73;4.17;;;;;;;;;;5035135;28;20204;-76
2024/01/19 05:41:32;;;;;;;9.90;3.90;;;;;;;;;;5032505;28;20528;-76
2024/01/19 05:43:58;;;;;;;13.13;4.37;;;;;;;;;;5045903;28;20194;-76
2024/01/19 05:46:23;;;;;;;9.67;3.90;;;;;;;;;;5046834;28;20185;-76
2024/01/19 05:48:49;;;;;;;9.23;4.20;;;;;;;;;;5033676;28;20281;-75
2024/01/19 05:51:15;;;;;;;9.60;4.33;;;;;;;;;;5047567;28;20561;-75
2024/01/19 05:53:41;;;;;;;8.20;4.27;;;;;;;;;;5047915;28;20194;-75
2024/01/19 05:56:07;;;;;;;8.93;4.60;;;;;;;;;;5035049;28;20493;-75
2024/01/19 05:58:32;;;;;;;6.33;3.70;;;;;;;;;;5029420;28;20552;-75
2024/01/19 06:00:58;;;;;;;9.30;4.20;;;;;;;;;;5032290;28;20182;-75
2024/01/19 06:03:24;;;;;;;11.20;4.20;;;;;;;;;;5035142;28;20218;-75
2024/01/19 06:05:49;;;;;;;9.60;4.30;;;;;;;;;;5047706;28;20190;-75
2024/01/19 06:08:14;;;;;;;5.00;3.87;;;;;;;;;;5038204;28;20190;-75
2024/01/19 06:10:40;;;;;;;8.07;3.90;;;;;;;;;;5039880;28;20273;-75
2024/01/19 06:13:05;;;;;;;8.73;3.77;;;;;;;;;;5037330;28;20190;-75
2024/01/19 06:15:31;;;;;;;9.50;4.17;;;;;;;;;;5043535;28;20244;-75
2024/01/19 06:17:56;;;;;;;11.60;3.80;;;;;;;;;;5038274;28;20514;-75
2024/01/19 06:20:22;;;;;;;9.33;3.80;;;;;;;;;;5025828;28;20239;-75
2024/01/19 06:22:47;;;;;;;8.23;3.47;;;;;;;;;;5042680;28;20208;-75
2024/01/19 06:25:14;;;;;;;10.10;3.97;;;;;;;;;;5044851;28;20296;-75
2024/01/19 06:27:39;;;;;;;5.60;3.40;;;;;;;;;;5035680;28;20717;-75
2024/01/19 06:30:06;;;;;;;7.13;3.47;;;;;;;;;;5040415;28;20319;-75
2024/01/19 06:32:32;;;;;;;9.93;3.77;;;;;;;;;;5031608;28;20265;-75
2024/01/19 06:34:57;;;;;;;7.57;3.30;;;;;;;;;;5039748;28;20659;-75
2024/01/19 06:37:22;;;;;;;6.07;3.17;;;;;;;;;;5035316;28;20194;-75
2024/01/19 06:39:48;;;;;;;7.20;3.90;;;;;;;;;;5033168;28;20210;-75
2024/01/19 06:42:13;;;;;;;7.20;3.20;;;;;;;;;;5036958;28;20245;-75
2024/01/19 06:44:43;;;;;;;8.97;3.30;;;;;;;;;;5048843;28;20268;-75
2024/01/19 06:47:08;;;;;;;8.37;3.60;;;;;;;;;;5036216;28;20198;-75
2024/01/19 06:49:34;;;;;;;8.77;3.57;;;;;;;;;;5030393;28;20556;-75
2024/01/19 06:51:59;;;;;;;11.70;3.77;;;;;;;;;;5033290;28;20469;-75
2024/01/19 06:54:25;;;;;;;5.57;3.10;;;;;;;;;;5035189;28;20860;-75
2024/01/19 06:56:50;;;;;;;11.63;5.35;;;;;;;;;;5042873;28;20794;-75
2024/01/19 06:59:16;;;;;;;7.17;3.70;;;;;;;;;;5039660;28;20268;-76
2024/01/19 07:01:41;;;;;;;7.33;3.63;;;;;;;;;;5020623;28;20212;-76
2024/01/19 07:04:07;;;;;;;9.70;3.23;;;;;;;;;;5036897;28;20241;-75
2024/01/19 07:06:33;;;;;;;8.63;4.10;;;;;;;;;;5040542;28;20356;-75
2024/01/19 07:08:59;;;;;;;7.53;3.87;;;;;;;;;;5033778;28;20186;-76
2024/01/19 07:11:24;;;;;;;9.17;4.10;;;;;;;;;;5036454;28;20296;-75
2024/01/19 07:13:50;;;;;;;6.97;3.90;;;;;;;;;;5037014;28;20196;-75
2024/01/19 07:16:15;;;;;;;8.23;3.40;;;;;;;;;;5036799;28;20225;-76
2024/01/19 07:18:41;;;;;;;8.80;3.53;;;;;;;;;;5028501;28;20278;-76
2024/01/19 07:21:06;;;;;;;8.93;3.80;;;;;;;;;;5038462;28;20220;-76
2024/01/19 07:23:31;;;;;;;7.63;3.63;;;;;;;;;;5038020;28;20689;-75
2024/01/19 07:25:57;;;;;;;8.67;3.87;;;;;;;;;;5030853;28;20186;-76
2024/01/19 07:28:22;;;;;;;15.87;4.30;;;;;;;;;;5037998;28;20188;-76
2024/01/19 07:30:48;;;;;;;8.60;3.60;;;;;;;;;;5035020;28;20192;-76
2024/01/19 07:33:13;;;;;;;7.47;3.80;;;;;;;;;;5043377;28;20213;-76
2024/01/19 07:35:39;;;;;;;8.43;4.10;;;;;;;;;;5029018;28;20186;-76
2024/01/19 07:38:04;;;;;;;9.57;3.77;;;;;;;;;;5024683;28;20186;-77
2024/01/19 07:40:30;;;;;;;9.07;4.20;;;;;;;;;;5044770;28;20196;-77
2024/01/19 07:42:55;;;;;;;13.67;4.30;;;;;;;;;;5028616;28;20253;-77
2024/01/19 07:45:20;;;;;;;8.53;4.87;;;;;;;;;;5035783;28;20189;-76
2024/01/19 07:47:46;;;;;;;13.93;5.33;;;;;;;;;;5041712;28;20189;-76
2024/01/19 07:50:11;;;;;;;9.07;4.77;;;;;;;;;;5026387;28;20178;-77
2024/01/19 07:52:38;;;;;;;11.40;5.20;;;;;;;;;;5027690;28;20185;-76
2024/01/19 07:55:04;;;;;;;7.43;4.93;;;;;;;;;;5017599;28;20208;-77
2024/01/19 07:57:30;;;;;;;9.10;5.20;;;;;;;;;;5039785;28;20178;-77
2024/01/19 07:59:55;;;;;;;12.27;6.43;;;;;;;;;;5018318;28;20680;-76
2024/01/19 08:02:21;;;;;;;19.47;7.20;;;;;;;;;;5038033;28;20213;-77
2024/01/19 08:04:47;;;;;;;15.80;6.20;;;;;;;;;;5042185;28;20687;-77
2024/01/19 08:07:12;;;;;;;15.10;5.77;;;;;;;;;;5038976;28;20293;-76
2024/01/19 08:09:38;;;;;;;13.93;6.30;;;;;;;;;;5028290;28;20208;-76
2024/01/19 08:12:03;;;;;;;13.77;6.87;;;;;;;;;;5035973;28;20213;-76
2024/01/19 08:14:29;;;;;;;15.13;6.20;;;;;;;;;;5039599;28;20534;-76
2024/01/19 08:16:54;;;;;;;13.23;6.63;;;;;;;;;;5034057;28;20201;-76
2024/01/19 08:19:20;;;;;;;13.43;6.47;;;;;;;;;;5049195;28;20648;-76
2024/01/19 08:21:45;;;;;;;21.27;6.63;;;;;;;;;;5041299;28;20229;-76
2024/01/19 08:24:12;;;;;;;14.63;7.47;;;;;;;;;;5030463;28;20198;-76
2024/01/19 08:26:38;;;;;;;14.67;7.23;;;;;;;;;;5033699;28;20182;-75
2024/01/19 08:29:03;;;;;;;19.10;7.87;;;;;;;;;;5038457;28;20190;-76
2024/01/19 08:31:30;;;;;;;13.33;6.83;;;;;;;;;;5039855;28;20683;-76
2024/01/19 08:33:56;;;;;;;13.30;7.50;;;;;;;;;;5028346;28;20524;-76
2024/01/19 08:36:24;;;;;;;15.27;6.87;;;;;;;;;;5045359;28;20208;-76
2024/01/19 08:38:53;;;;;;;20.63;8.13;;;;;;;;;;5025078;28;20280;-75
2024/01/19 08:41:19;;;;;;;13.13;7.30;;;;;;;;;;5041530;28;20563;-76
2024/01/19 08:43:44;;;;;;;12.90;7.63;;;;;;;;;;5038602;28;20245;-76
2024/01/19 08:46:10;;;;;;;16.37;8.83;;;;;;;;;;5038544;28;20190;-76
2024/01/19 08:48:35;;;;;;;14.50;8.37;;;;;;;;;;5041068;28;20665;-76
2024/01/19 08:51:03;;;;;;;15.07;8.23;;;;;;;;;;5016630;28;20201;-76
2024/01/19 08:53:29;;;;;;;23.43;8.60;;;;;;;;;;5024633;28;20192;-75
2024/01/19 08:55:54;;;;;;;17.37;8.27;;;;;;;;;;5040312;28;20212;-76
2024/01/19 08:58:20;;;;;;;15.23;8.23;;;;;;;;;;5038223;28;20190;-75
2024/01/19 09:00:46;;;;;;;16.07;8.00;;;;;;;;;;5046025;28;20243;-75
2024/01/19 09:03:12;;;;;;;15.47;8.10;;;;;;;;;;5042801;28;20209;-75
2024/01/19 09:05:37;;;;;;;14.90;7.87;;;;;;;;;;5036505;28;20624;-76
2024/01/19 09:08:03;;;;;;;17.07;8.00;;;;;;;;;;5030419;28;20523;-76
2024/01/19 09:10:29;;;;;;;16.60;7.87;;;;;;;;;;5039600;28;20201;-75
2024/01/19 09:12:55;;;;;;;18.70;7.87;;;;;;;;;;5043772;28;20250;-76
2024/01/19 09:15:21;;;;;;;12.17;7.67;;;;;;;;;;5042425;28;20293;-76
2024/01/19 09:17:47;;;;;;;13.03;7.80;;;;;;;;;;5033675;28;20190;-75
2024/01/19 09:20:13;;;;;;;14.20;7.20;;;;;;;;;;5039099;28;20276;-74
2024/01/19 09:22:38;;;;;;;16.40;8.10;;;;;;;;;;5043929;28;20213;-75
2024/01/19 09:25:04;;;;;;;14.23;7.13;;;;;;;;;;5054458;28;20569;-75
2024/01/19 09:27:29;;;;;;;15.80;8.00;;;;;;;;;;5039706;28;20615;-75
2024/01/19 09:29:55;;;;;;;14.37;7.63;;;;;;;;;;5026628;28;20190;-75
2024/01/19 09:32:20;;;;;;;13.50;7.60;;;;;;;;;;5031792;28;20375;-74
2024/01/19 09:34:46;;;;;;;18.90;7.17;;;;;;;;;;5042999;28;20181;-75
2024/01/19 09:37:11;;;;;;;18.13;7.60;;;;;;;;;;5042862;28;20190;-74
2024/01/19 09:39:37;;;;;;;12.63;7.07;;;;;;;;;;5043905;28;20235;-75
2024/01/19 09:42:06;;;;;;;17.20;7.73;;;;;;;;;;5039604;28;20244;-75
2024/01/19 09:44:36;;;;;;;11.47;7.40;;;;;;;;;;5036006;28;20232;-74
2024/01/19 09:47:21;;;;;;;14.10;7.97;;;;;;;;;;5045222;28;20193;-76
2024/01/19 09:50:02;;;;;;;12.23;7.57;;;;;;;;;;5037839;28;20713;-74
2024/01/19 09:52:55;;;;;;;13.70;7.87;;;;;;;;;;5041821;28;20182;-74
2024/01/19 09:55:23;;;;;;;14.53;7.63;;;;;;;;;;5037005;28;20190;-74
2024/01/19 09:57:48;;;;;;;14.73;7.27;;;;;;;;;;5040678;28;20283;-75
2024/01/19 10:00:16;;;;;;;13.73;7.13;;;;;;;;;;5034690;28;20193;-75
2024/01/19 10:02:46;;;;;;;14.80;7.30;;;;;;;;;;5037059;28;20781;-75
2024/01/19 10:05:13;;;;;;;17.33;7.10;;;;;;;;;;5042618;28;20185;-75
2024/01/19 10:07:41;;;;;;;15.53;7.23;;;;;;;;;;5032707;28;20182;-75
2024/01/19 10:10:08;;;;;;;12.07;7.10;;;;;;;;;;5047164;28;20197;-75
2024/01/19 10:12:34;;;;;;;13.77;6.93;;;;;;;;;;5043950;28;20182;-75
2024/01/19 10:15:00;;;;;;;11.17;6.57;;;;;;;;;;5042176;28;20229;-75
2024/01/19 10:17:26;;;;;;;11.40;6.50;;;;;;;;;;5021014;28;20393;-75
2024/01/19 10:19:52;;;;;;;12.00;6.20;;;;;;;;;;5036578;28;20213;-75
2024/01/19 10:22:27;;;;;;;10.40;5.87;;;;;;;;;;5045214;28;20693;-75
2024/01/19 10:25:03;;;;;;;12.73;6.87;;;;;;;;;;5043253;28;20221;-75
2024/01/19 10:27:44;;;;;;;11.13;6.13;;;;;;;;;;5037316;28;20271;-75
2024/01/19 10:30:11;;;;;;;14.83;6.13;;;;;;;;;;5037054;28;20672;-75
2024/01/19 10:32:40;;;;;;;12.47;6.40;;;;;;;;;;5046902;28;20238;-76
2024/01/19 10:35:07;;;;;;;10.20;6.00;;;;;;;;;;5029283;28;20256;-75
2024/01/19 10:37:33;;;;;;;9.10;6.00;;;;;;;;;;5044559;28;20190;-75
2024/01/19 10:40:13;;;;;;;14.20;6.87;;;;;;;;;;5035082;28;20737;-75
2024/01/19 10:42:39;;;;;;;10.73;6.43;;;;;;;;;;5044495;28;20204;-75
2024/01/19 10:45:25;;;;;;;14.80;6.37;;;;;;;;;;5039427;28;20530;-74
2024/01/19 10:47:58;;;;;;;13.50;6.33;;;;;;;;;;4344707;28;10000823;-75
2024/01/19 10:50:26;;;;;;;12.00;6.70;;;;;;;;;;5028999;28;20461;-74
2024/01/19 10:52:53;;;;;;;11.47;6.73;;;;;;;;;;5035642;28;20193;-74
2024/01/19 10:55:20;;;;;;;9.73;5.40;;;;;;;;;;5029068;28;20189;-74
2024/01/19 10:57:50;;;;;;;9.67;5.30;;;;;;;;;;5034882;28;20209;-75
2024/01/19 11:00:22;;;;;;;13.80;6.77;;;;;;;;;;5042393;28;20194;-74
2024/01/19 11:02:51;;;;;;;10.20;6.23;;;;;;;;;;5036112;28;20724;-75
2024/01/19 11:05:21;;;;;;;9.13;5.87;;;;;;;;;;5026668;28;20316;-75
2024/01/19 11:08:01;;;;;;;10.03;5.80;;;;;;;;;;5025615;28;20271;-74
2024/01/19 11:10:28;;;;;;;12.07;6.10;;;;;;;;;;5036724;28;20185;-74
2024/01/19 11:12:55;;;;;;;11.20;6.33;;;;;;;;;;5038523;28;20182;-74
2024/01/19 11:15:30;;;;;;;13.17;6.90;;;;;;;;;;5035249;28;20649;-74
2024/01/19 11:17:58;;;;;;;13.90;7.00;;;;;;;;;;5038072;28;20246;-75
2024/01/19 11:20:24;;;;;;;11.87;7.00;;;;;;;;;;5026884;28;20186;-75
2024/01/19 11:22:53;;;;;;;15.17;7.67;;;;;;;;;;5032596;28;20546;-74
2024/01/19 11:25:44;;;;;;;13.47;8.33;;;;;;;;;;5029039;28;20190;-74
2024/01/19 11:28:18;;;;;;;14.37;7.97;;;;;;;;;;5038573;28;20198;-74
2024/01/19 11:31:02;;;;;;;13.30;8.03;;;;;;;;;;5027535;28;20238;-76
2024/01/19 11:33:31;;;;;;;13.30;8.13;;;;;;;;;;5036756;28;20640;-75
2024/01/19 11:35:57;;;;;;;16.47;9.00;;;;;;;;;;5029862;28;20221;-76
2024/01/19 11:38:38;;;;;;;15.20;8.70;;;;;;;;;;5038591;28;20286;-75
2024/01/19 11:41:04;;;;;;;16.97;8.20;;;;;;;;;;5040240;28;20221;-75
2024/01/19 11:43:37;;;;;;;16.00;8.43;;;;;;;;;;5040438;28;20287;-75
2024/01/19 11:46:03;;;;;;;18.17;8.47;;;;;;;;;;5034322;28;20197;-75
2024/01/19 11:48:43;;;;;;;18.30;8.53;;;;;;;;;;5038755;28;20205;-75
2024/01/19 11:51:33;;;;;;;18.07;8.67;;;;;;;;;;5027817;28;20209;-76
2024/01/19 11:54:00;;;;;;;11.97;7.90;;;;;;;;;;5031597;28;20534;-77
2024/01/19 11:56:25;;;;;;;14.57;8.17;;;;;;;;;;5031040;28;20186;-77
2024/01/19 11:58:51;;;;;;;16.43;8.17;;;;;;;;;;5033705;28;20466;-76
2024/01/19 12:01:17;;;;;;;14.63;8.40;;;;;;;;;;5041718;28;20197;-76
2024/01/19 12:03:43;;;;;;;14.60;8.50;;;;;;;;;;5036355;28;20259;-77
2024/01/19 12:06:08;;;;;;;14.37;8.10;;;;;;;;;;5041293;28;20543;-77
2024/01/19 12:08:34;;;;;;;16.80;8.50;;;;;;;;;;5037358;28;20231;-77
2024/01/19 12:11:09;;;;;;;16.43;8.77;;;;;;;;;;5036614;28;20190;-77
2024/01/19 12:13:39;;;;;;;22.17;8.83;;;;;;;;;;5032773;28;20209;-77
2024/01/19 12:16:07;;;;;;;16.37;8.17;;;;;;;;;;5020160;28;20233;-77
2024/01/19 12:18:33;;;;;;;15.07;8.03;;;;;;;;;;5025324;28;20214;-77
2024/01/19 12:21:00;;;;;;;17.43;8.97;;;;;;;;;;5029275;28;20265;-78
2024/01/19 12:23:28;;;;;;;18.20;9.97;;;;;;;;;;5036338;28;20217;-77
2024/01/19 12:25:58;;;;;;;22.57;9.03;;;;;;;;;;5029930;28;20429;-78
2024/01/19 12:28:24;;;;;;;13.77;8.43;;;;;;;;;;5044646;28;20190;-77
2024/01/19 12:30:52;;;;;;;15.57;8.30;;;;;;;;;;5039591;28;20553;-77
2024/01/19 12:33:21;;;;;;;14.00;7.90;;;;;;;;;;5025398;28;20216;-77
2024/01/19 12:35:47;;;;;;;13.43;8.10;;;;;;;;;;5040744;28;20198;-77
2024/01/19 12:38:16;;;;;;;17.87;7.63;;;;;;;;;;5045999;28;20239;-76
2024/01/19 12:40:42;;;;;;;14.80;8.23;;;;;;;;;;5049916;28;20224;-77
2024/01/19 12:43:08;;;;;;;16.60;7.50;;;;;;;;;;5029607;28;20206;-77
2024/01/19 12:45:34;;;;;;;13.93;6.40;;;;;;;;;;5044334;28;20263;-77
2024/01/19 12:48:00;;;;;;;14.67;7.10;;;;;;;;;;5037347;28;20361;-77
2024/01/19 12:50:29;;;;;;;17.10;6.77;;;;;;;;;;5040770;28;20662;-76
2024/01/19 12:52:55;;;;;;;15.90;6.80;;;;;;;;;;5038128;28;20197;-77
2024/01/19 12:55:31;;;;;;;14.00;6.30;;;;;;;;;;5034666;28;20220;-77
2024/01/19 12:57:57;;;;;;;14.33;6.60;;;;;;;;;;5029710;28;20185;-77
2024/01/19 13:00:27;;;;;;;14.47;5.90;;;;;;;;;;5031081;28;20208;-77
2024/01/19 13:03:00;;;;;;;16.20;5.23;;;;;;;;;;5030918;28;20308;-77
2024/01/19 13:05:27;;;;;;;12.47;4.93;;;;;;;;;;5041591;28;20182;-77
2024/01/19 13:08:01;;;;;;;16.77;4.80;;;;;;;;;;5029060;28;20181;-77
2024/01/19 13:10:27;;;;;;;12.03;4.90;;;;;;;;;;5038362;28;20201;-77
2024/01/19 13:13:07;;;;;;;15.20;4.43;;;;;;;;;;5034359;28;20354;-76
2024/01/19 13:15:33;;;;;;;10.87;4.50;;;;;;;;;;5033056;28;20228;-78
2024/01/19 13:18:06;;;;;;;10.33;4.40;;;;;;;;;;5045264;28;20185;-77
2024/01/19 13:20:33;;;;;;;18.70;4.60;;;;;;;;;;5044642;28;20189;-78
2024/01/19 13:22:59;;;;;;;9.03;4.70;;;;;;;;;;5037679;28;20210;-77
2024/01/19 13:25:24;;;;;;;15.57;4.73;;;;;;;;;;5040142;28;20692;-77
2024/01/19 13:27:49;;;;;;;14.47;5.13;;;;;;;;;;5028559;28;20584;-77
2024/01/19 13:30:15;;;;;;;11.23;5.07;;;;;;;;;;5010766;28;20558;-77
2024/01/19 13:32:41;;;;;;;13.73;6.37;;;;;;;;;;4342486;28;10000726;-77
2024/01/19 13:35:08;;;;;;;11.53;4.93;;;;;;;;;;5034146;28;20198;-77
2024/01/19 13:37:34;;;;;;;11.37;4.93;;;;;;;;;;5039270;28;20339;-78
2024/01/19 13:40:04;;;;;;;16.33;5.03;;;;;;;;;;5027447;28;20315;-78
2024/01/19 13:42:31;;;;;;;11.03;4.83;;;;;;;;;;5033680;28;20217;-77
2024/01/19 13:44:57;;;;;;;16.60;5.77;;;;;;;;;;5043042;28;20238;-78
2024/01/19 13:47:22;;;;;;;15.03;5.50;;;;;;;;;;5042922;28;20701;-77
2024/01/19 13:49:48;;;;;;;14.10;4.90;;;;;;;;;;5030255;28;20190;-77
2024/01/19 13:52:13;;;;;;;13.53;4.40;;;;;;;;;;5040540;28;20200;-77
2024/01/19 13:54:39;;;;;;;11.20;4.67;;;;;;;;;;5044059;28;20634;-77
2024/01/19 13:57:04;;;;;;;9.60;4.70;;;;;;;;;;5034376;28;20250;-77
2024/01/19 13:59:30;;;;;;;12.87;4.70;;;;;;;;;;5044274;28;20186;-77
2024/01/19 14:01:55;;;;;;;14.53;4.53;;;;;;;;;;5035032;28;20326;-77
2024/01/19 14:04:21;;;;;;;12.43;4.33;;;;;;;;;;5032664;28;20205;-78
2024/01/19 14:06:47;;;;;;;15.33;4.70;;;;;;;;;;5033363;28;20214;-78
2024/01/19 14:09:12;;;;;;;13.90;4.30;;;;;;;;;;5033962;28;20193;-77
2024/01/19 14:11:39;;;;;;;15.60;3.80;;;;;;;;;;5044647;28;20247;-78
2024/01/19 14:14:04;;;;;;;12.43;5.43;;;;;;;;;;5038631;28;20198;-77
2024/01/19 14:16:30;;;;;;;13.23;3.73;;;;;;;;;;5030939;28;20566;-78
2024/01/19 14:18:56;;;;;;;12.00;4.23;;;;;;;;;;5033266;28;20669;-78
2024/01/19 14:21:21;;;;;;;13.97;3.30;;;;;;;;;;5039599;28;20692;-77
2024/01/19 14:23:47;;;;;;;11.63;3.80;;;;;;;;;;5035320;28;20210;-78
2024/01/19 14:26:12;;;;;;;11.17;3.60;;;;;;;;;;5025674;28;20668;-78
2024/01/19 14:28:40;;;;;;;10.53;3.50;;;;;;;;;;5038451;28;20188;-77
2024/01/19 14:31:06;;;;;;;12.27;3.00;;;;;;;;;;5029176;28;20198;-77
2024/01/19 14:33:31;;;;;;;7.83;2.97;;;;;;;;;;5019796;28;20713;-77